createdAt,value
2023-04-04T00:00:39.416Z,67.80
2023-04-04T00:01:54.927Z,67.81
2023-04-04T00:02:37.799Z,67.94
2023-04-04T00:03:37.809Z,67.97
2023-04-04T00:04:37.950Z,67.93
2023-04-04T00:05:37.211Z,68.11
2023-04-04T00:06:37.522Z,68.36
2023-04-04T00:07:37.372Z,68.37
2023-04-04T00:08:37.196Z,68.35
2023-04-04T00:09:37.450Z,68.41
2023-04-04T00:10:37.551Z,68.54
2023-04-04T00:11:37.454Z,68.58
2023-04-04T00:12:40.981Z,68.59
2023-04-04T00:13:37.046Z,68.69
2023-04-04T00:14:37.839Z,68.68
2023-04-04T00:15:37.749Z,68.84
2023-04-04T00:16:37.528Z,69.01
2023-04-04T00:17:37.195Z,68.98
2023-04-04T00:18:37.119Z,68.84
2023-04-04T00:19:37.079Z,69.02
2023-04-04T00:20:37.743Z,69.03
2023-04-04T00:21:37.285Z,69.00
2023-04-04T00:22:37.448Z,68.99
2023-04-04T00:23:37.201Z,69.10
2023-04-04T00:24:37.012Z,68.98
2023-04-04T00:25:37.118Z,68.94
2023-04-04T00:26:36.750Z,69.04
2023-04-04T00:27:36.969Z,68.82
2023-04-04T00:28:37.705Z,68.92
2023-04-04T00:29:37.403Z,69.04
2023-04-04T00:30:37.452Z,69.03
2023-04-04T00:31:37.267Z,68.81
2023-04-04T00:32:37.503Z,68.83
2023-04-04T00:33:37.610Z,69.09
2023-04-04T00:34:37.329Z,69.31
2023-04-04T00:35:37.855Z,69.27
2023-04-04T00:36:38.259Z,69.33
2023-04-04T00:37:37.229Z,69.33
2023-04-04T00:38:36.827Z,69.48
2023-04-04T00:39:37.553Z,69.58
2023-04-04T00:40:37.043Z,69.60
2023-04-04T00:41:36.543Z,69.51
2023-04-04T00:42:37.504Z,69.48
2023-04-04T00:43:37.058Z,69.61
2023-04-04T00:44:37.264Z,69.87
2023-04-04T00:45:37.238Z,69.85
2023-04-04T00:46:37.467Z,69.77
2023-04-04T00:47:37.982Z,69.68
2023-04-04T00:48:37.090Z,69.62
2023-04-04T00:49:37.138Z,69.67
2023-04-04T00:50:37.245Z,69.58
2023-04-04T00:51:37.123Z,69.71
2023-04-04T00:52:37.257Z,69.68
2023-04-04T00:53:37.088Z,69.64
2023-04-04T00:54:36.799Z,69.77
2023-04-04T00:55:37.826Z,69.91
2023-04-04T00:56:37.258Z,70.14
2023-04-04T00:57:36.763Z,70.19
2023-04-04T00:58:37.412Z,70.30
2023-04-04T00:59:37.519Z,70.39
2023-04-04T01:00:38.804Z,70.30
2023-04-04T01:01:37.729Z,70.33
2023-04-04T01:02:37.592Z,70.37
2023-04-04T01:03:37.175Z,70.51
2023-04-04T01:04:37.358Z,70.62
2023-04-04T01:05:37.068Z,70.51
2023-04-04T01:06:37.191Z,70.46
2023-04-04T01:07:37.453Z,70.57
2023-04-04T01:08:37.375Z,70.63
2023-04-04T01:09:37.606Z,70.69
2023-04-04T01:10:37.884Z,70.68
2023-04-04T01:11:37.862Z,70.81
2023-04-04T01:12:37.597Z,70.80
2023-04-04T01:13:37.402Z,70.87
2023-04-04T01:14:37.638Z,70.84
2023-04-04T01:15:38.591Z,70.88
2023-04-04T01:16:37.433Z,70.95
2023-04-04T01:17:37.386Z,70.96
2023-04-04T01:18:37.451Z,71.08
2023-04-04T01:19:37.075Z,71.05
2023-04-04T01:20:37.514Z,70.95
2023-04-04T01:21:37.524Z,70.99
2023-04-04T01:22:37.085Z,70.99
2023-04-04T01:23:37.177Z,71.13
2023-04-04T01:24:37.333Z,71.22
2023-04-04T01:25:37.831Z,71.16
2023-04-04T01:26:37.548Z,71.22
2023-04-04T01:27:37.351Z,71.44
2023-04-04T01:28:36.740Z,71.53
2023-04-04T01:29:37.437Z,71.50
2023-04-04T01:30:37.855Z,71.54
2023-04-04T01:31:37.962Z,71.61
2023-04-04T01:32:42.971Z,71.59
2023-04-04T01:33:37.286Z,71.58
2023-04-04T01:34:36.856Z,71.65
2023-04-04T01:35:37.346Z,71.69
2023-04-04T01:36:44.910Z,71.66
2023-04-04T01:37:37.690Z,71.77
2023-04-04T01:38:36.989Z,71.69
2023-04-04T01:39:37.291Z,71.76
2023-04-04T01:40:37.005Z,71.83
2023-04-04T01:41:36.889Z,71.85
2023-04-04T01:42:37.945Z,72.00
2023-04-04T01:43:37.408Z,72.12
2023-04-04T01:44:36.544Z,71.97
2023-04-04T01:45:37.980Z,71.88
2023-04-04T01:46:37.379Z,72.09
2023-04-04T01:47:36.843Z,72.20
2023-04-04T01:48:37.518Z,72.45
2023-04-04T01:49:37.371Z,72.60
2023-04-04T01:50:37.761Z,72.47
2023-04-04T01:51:37.710Z,72.25
2023-04-04T01:52:37.277Z,72.26
2023-04-04T01:53:37.369Z,72.36
2023-04-04T01:54:37.387Z,72.22
2023-04-04T01:55:37.872Z,72.26
2023-04-04T01:56:37.820Z,72.23
2023-04-04T01:57:37.266Z,72.06
2023-04-04T01:58:37.169Z,72.05
2023-04-04T01:59:37.495Z,72.13
2023-04-04T02:00:38.499Z,72.32
2023-04-04T02:01:37.847Z,72.52
2023-04-04T02:02:37.795Z,72.67
2023-04-04T02:03:37.645Z,72.55
2023-04-04T02:04:37.726Z,72.48
2023-04-04T02:05:37.424Z,72.32
2023-04-04T02:06:36.964Z,72.27
2023-04-04T02:07:37.766Z,72.46
2023-04-04T02:08:37.340Z,72.59
2023-04-04T02:09:37.466Z,72.56
2023-04-04T02:10:38.164Z,72.48
2023-04-04T02:11:37.261Z,72.44
2023-04-04T02:12:37.472Z,72.46
2023-04-04T02:13:37.376Z,72.41
2023-04-04T02:14:37.216Z,72.42
2023-04-04T02:15:37.740Z,72.52
2023-04-04T02:16:37.802Z,72.53
2023-04-04T02:17:37.809Z,72.59
2023-04-04T02:18:37.554Z,72.66
2023-04-04T02:19:37.364Z,72.68
2023-04-04T02:20:38.256Z,72.71
2023-04-04T02:21:38.032Z,72.83
2023-04-04T02:22:37.114Z,72.83
2023-04-04T02:23:36.938Z,72.96
2023-04-04T02:24:37.767Z,73.04
2023-04-04T02:25:37.941Z,72.96
2023-04-04T02:26:38.374Z,73.09
2023-04-04T02:27:36.993Z,73.05
2023-04-04T02:28:36.429Z,72.98
2023-04-04T02:29:37.930Z,72.86
2023-04-04T02:30:38.646Z,72.79
2023-04-04T02:31:37.682Z,72.91
2023-04-04T02:32:37.992Z,72.99
2023-04-04T02:33:37.155Z,72.97
2023-04-04T02:34:37.129Z,72.85
2023-04-04T02:35:37.314Z,72.82
2023-04-04T02:36:37.102Z,72.89
2023-04-04T02:37:36.776Z,72.92
2023-04-04T02:38:37.641Z,73.03
2023-04-04T02:39:37.273Z,73.02
2023-04-04T02:40:36.901Z,72.98
2023-04-04T02:41:37.651Z,72.97
2023-04-04T02:42:37.702Z,72.96
2023-04-04T02:43:37.612Z,73.09
2023-04-04T02:44:37.215Z,73.16
2023-04-04T02:45:37.020Z,73.15
2023-04-04T02:46:36.951Z,73.05
2023-04-04T02:47:37.060Z,73.10
2023-04-04T02:48:37.027Z,73.19
2023-04-04T02:49:36.955Z,73.16
2023-04-04T02:50:38.271Z,73.17
2023-04-04T02:51:36.732Z,73.26
2023-04-04T02:52:36.950Z,73.28
2023-04-04T02:53:37.744Z,73.22
2023-04-04T02:54:37.755Z,73.30
2023-04-04T02:55:37.370Z,73.37
2023-04-04T02:56:37.245Z,73.50
2023-04-04T02:57:36.721Z,73.41
2023-04-04T02:58:37.339Z,73.25
2023-04-04T02:59:37.322Z,73.12
2023-04-04T03:00:38.501Z,73.17
2023-04-04T03:01:38.204Z,73.28
2023-04-04T03:02:37.912Z,73.31
2023-04-04T03:03:37.605Z,73.23
2023-04-04T03:04:37.407Z,73.28
2023-04-04T03:05:37.126Z,73.18
2023-04-04T03:06:37.118Z,73.21
2023-04-04T03:07:37.078Z,73.34
2023-04-04T03:08:36.686Z,73.46
2023-04-04T03:09:37.212Z,73.60
2023-04-04T03:10:37.094Z,73.62
2023-04-04T03:11:36.831Z,73.74
2023-04-04T03:12:37.213Z,73.78
2023-04-04T03:13:36.793Z,73.80
2023-04-04T03:14:37.440Z,73.71
2023-04-04T03:15:37.672Z,73.70
2023-04-04T03:16:37.766Z,73.56
2023-04-04T03:17:39.488Z,73.53
2023-04-04T03:18:37.366Z,73.69
2023-04-04T03:19:36.949Z,73.70
2023-04-04T03:20:37.893Z,73.58
2023-04-04T03:21:37.515Z,73.51
2023-04-04T03:22:37.432Z,73.56
2023-04-04T03:23:37.296Z,73.62
2023-04-04T03:24:37.240Z,73.73
2023-04-04T03:25:37.133Z,73.85
2023-04-04T03:26:37.264Z,73.84
2023-04-04T03:27:37.064Z,73.86
2023-04-04T03:28:37.462Z,73.72
2023-04-04T03:29:36.915Z,73.60
2023-04-04T03:30:38.238Z,73.70
2023-04-04T03:31:37.692Z,73.73
2023-04-04T03:32:37.877Z,73.80
2023-04-04T03:33:36.822Z,73.87
2023-04-04T03:34:37.355Z,74.02
2023-04-04T03:35:36.929Z,74.16
2023-04-04T03:36:37.921Z,74.20
2023-04-04T03:37:37.508Z,74.11
2023-04-04T03:38:37.041Z,73.96
2023-04-04T03:39:36.952Z,73.98
2023-04-04T03:40:37.751Z,74.09
2023-04-04T03:41:37.028Z,74.18
2023-04-04T03:42:37.008Z,74.32
2023-04-04T03:43:37.197Z,74.29
2023-04-04T03:44:37.420Z,74.29
2023-04-04T03:45:37.584Z,74.29
2023-04-04T03:46:37.561Z,74.25
2023-04-04T03:47:37.792Z,74.23
2023-04-04T03:48:37.696Z,74.04
2023-04-04T03:49:37.566Z,73.97
2023-04-04T03:50:37.791Z,73.97
2023-04-04T03:51:38.043Z,74.06
2023-04-04T03:52:37.036Z,74.05
2023-04-04T03:53:42.010Z,74.11
2023-04-04T03:54:37.099Z,74.08
2023-04-04T03:55:37.076Z,74.12
2023-04-04T03:56:37.581Z,74.15
2023-04-04T03:57:37.428Z,74.20
2023-04-04T03:58:37.066Z,74.10
2023-04-04T03:59:37.041Z,74.12
2023-04-04T04:00:38.483Z,74.14
2023-04-04T04:01:45.535Z,74.27
2023-04-04T04:02:37.657Z,74.39
2023-04-04T04:03:45.737Z,74.44
2023-04-04T04:04:37.833Z,74.47
2023-04-04T04:05:37.825Z,74.39
2023-04-04T04:06:37.598Z,74.31
2023-04-04T04:07:37.637Z,74.41
2023-04-04T04:08:39.413Z,74.39
2023-04-04T04:09:37.195Z,74.37
2023-04-04T04:10:37.658Z,74.49
2023-04-04T04:11:38.476Z,74.48
2023-04-04T04:12:37.117Z,74.56
2023-04-04T04:13:36.746Z,74.68
2023-04-04T04:14:37.718Z,74.76
2023-04-04T04:15:38.461Z,74.84
2023-04-04T04:16:37.342Z,74.65
2023-04-04T04:17:37.251Z,74.76
2023-04-04T04:18:37.453Z,74.76
2023-04-04T04:19:37.486Z,74.74
2023-04-04T04:20:37.611Z,74.65
2023-04-04T04:21:37.280Z,74.64
2023-04-04T04:22:37.448Z,74.61
2023-04-04T04:23:37.049Z,74.62
2023-04-04T04:24:37.911Z,74.65
2023-04-04T04:25:38.045Z,74.61
2023-04-04T04:26:36.890Z,74.66
2023-04-04T04:27:38.138Z,74.55
2023-04-04T04:28:47.831Z,74.51
2023-04-04T04:29:38.171Z,74.47
2023-04-04T04:30:37.593Z,74.37
2023-04-04T04:31:37.612Z,74.37
2023-04-04T04:32:37.189Z,74.36
2023-04-04T04:33:37.245Z,74.31
2023-04-04T04:34:37.187Z,74.22
2023-04-04T04:35:37.328Z,74.16
2023-04-04T04:36:37.537Z,74.12
2023-04-04T04:37:37.849Z,74.19
2023-04-04T04:38:37.819Z,74.24
2023-04-04T04:39:37.329Z,74.17
2023-04-04T04:40:37.830Z,74.20
2023-04-04T04:41:37.416Z,74.05
2023-04-04T04:42:37.347Z,74.02
2023-04-04T04:43:37.067Z,74.03
2023-04-04T04:44:37.084Z,74.06
2023-04-04T04:45:37.704Z,74.11
2023-04-04T04:46:38.605Z,74.15
2023-04-04T04:47:38.707Z,74.15
2023-04-04T04:48:37.773Z,74.15
2023-04-04T04:49:38.089Z,74.16
2023-04-04T04:50:37.282Z,74.24
2023-04-04T04:51:37.199Z,74.25
2023-04-04T04:52:37.554Z,74.38
2023-04-04T04:53:37.211Z,74.58
2023-04-04T04:54:37.094Z,74.67
2023-04-04T04:55:37.396Z,74.67
2023-04-04T04:56:37.924Z,74.55
2023-04-04T04:57:37.974Z,74.45
2023-04-04T04:58:37.859Z,74.38
2023-04-04T04:59:37.621Z,74.40
2023-04-04T05:00:39.122Z,74.44
2023-04-04T05:01:56.867Z,74.46
2023-04-04T05:02:38.244Z,74.56
2023-04-04T05:03:37.680Z,74.59
2023-04-04T05:04:37.482Z,74.50
2023-04-04T05:05:37.573Z,74.43
2023-04-04T05:06:38.116Z,74.41
2023-04-04T05:07:37.549Z,74.41
2023-04-04T05:08:38.100Z,74.49
2023-04-04T05:09:37.039Z,74.53
2023-04-04T05:10:37.589Z,74.56
2023-04-04T05:11:37.382Z,74.66
2023-04-04T05:12:37.690Z,74.59
2023-04-04T05:13:37.847Z,74.54
2023-04-04T05:14:37.740Z,74.49
2023-04-04T05:15:38.368Z,74.57
2023-04-04T05:16:37.846Z,74.70
2023-04-04T05:17:38.209Z,74.73
2023-04-04T05:18:37.370Z,74.80
2023-04-04T05:19:37.252Z,74.97
2023-04-04T05:20:37.519Z,74.97
2023-04-04T05:22:09.591Z,74.95
2023-04-04T05:22:40.830Z,74.85
2023-04-04T05:23:37.732Z,74.90
2023-04-04T05:24:37.313Z,74.97
2023-04-04T05:25:39.823Z,74.94
2023-04-04T05:26:37.546Z,74.95
2023-04-04T05:27:37.547Z,74.91
2023-04-04T05:28:37.426Z,74.97
2023-04-04T05:29:37.112Z,75.01
2023-04-04T05:30:37.454Z,74.93
2023-04-04T05:31:37.785Z,75.01
2023-04-04T05:32:38.254Z,75.00
2023-04-04T05:33:37.190Z,75.05
2023-04-04T05:34:37.165Z,75.09
2023-04-04T05:35:37.637Z,75.14
2023-04-04T05:36:37.716Z,75.16
2023-04-04T05:37:37.801Z,75.12
2023-04-04T05:38:37.780Z,75.01
2023-04-04T05:39:37.843Z,74.92
2023-04-04T05:40:38.262Z,75.00
2023-04-04T05:41:37.458Z,75.15
2023-04-04T05:42:37.708Z,75.29
2023-04-04T05:43:37.170Z,75.32
2023-04-04T05:44:37.238Z,75.28
2023-04-04T05:45:38.893Z,75.34
2023-04-04T05:46:37.795Z,75.48
2023-04-04T05:47:37.658Z,75.43
2023-04-04T05:48:37.587Z,75.45
2023-04-04T05:49:37.292Z,75.45
2023-04-04T05:50:37.851Z,75.51
2023-04-04T05:51:37.668Z,75.47
2023-04-04T05:52:37.540Z,75.44
2023-04-04T05:53:38.361Z,75.51
2023-04-04T05:54:37.221Z,75.45
2023-04-04T05:55:37.311Z,75.50
2023-04-04T05:56:37.154Z,75.61
2023-04-04T05:57:39.277Z,75.78
2023-04-04T05:58:37.003Z,75.82
2023-04-04T05:59:37.347Z,75.96
2023-04-04T06:00:38.699Z,76.02
2023-04-04T06:01:37.949Z,76.02
2023-04-04T06:02:38.156Z,76.18
2023-04-04T06:03:37.451Z,76.19
2023-04-04T06:04:37.520Z,76.19
2023-04-04T06:05:37.500Z,76.12
2023-04-04T06:06:37.581Z,76.11
2023-04-04T06:07:37.895Z,76.13
2023-04-04T06:08:50.542Z,76.06
2023-04-04T06:09:37.466Z,75.98
2023-04-04T06:10:38.131Z,76.01
2023-04-04T06:11:37.479Z,76.08
2023-04-04T06:12:37.724Z,76.29
2023-04-04T06:13:37.533Z,76.26
2023-04-04T06:14:37.329Z,76.11
2023-04-04T06:15:37.800Z,75.97
2023-04-04T06:16:43.065Z,76.05
2023-04-04T06:17:37.284Z,76.09
2023-04-04T06:18:37.140Z,76.21
2023-04-04T06:19:37.232Z,76.11
2023-04-04T06:20:37.714Z,76.14
2023-04-04T06:21:38.226Z,76.11
2023-04-04T06:22:42.642Z,76.09
2023-04-04T06:23:38.109Z,76.13
2023-04-04T06:24:37.616Z,76.19
2023-04-04T06:25:37.888Z,76.31
2023-04-04T06:26:38.062Z,76.41
2023-04-04T06:27:37.285Z,76.51
2023-04-04T06:28:45.546Z,76.56
2023-04-04T06:29:37.662Z,76.62
2023-04-04T06:30:38.540Z,76.63
2023-04-04T06:31:37.840Z,76.55
2023-04-04T06:32:46.125Z,76.47
2023-04-04T06:33:37.473Z,76.41
2023-04-04T06:34:52.080Z,76.34
2023-04-04T06:35:37.562Z,76.31
2023-04-04T06:36:37.435Z,76.27
2023-04-04T06:37:37.244Z,76.24
2023-04-04T06:38:37.057Z,76.15
2023-04-04T06:39:37.177Z,75.89
2023-04-04T06:40:36.836Z,75.67
2023-04-04T06:41:37.607Z,75.68
2023-04-04T06:42:37.872Z,75.82
2023-04-04T06:43:37.802Z,75.98
2023-04-04T06:44:37.426Z,75.90
2023-04-04T06:45:37.672Z,75.66
2023-04-04T06:46:37.826Z,75.20
2023-04-04T06:47:37.415Z,74.77
2023-04-04T06:48:37.545Z,74.68
2023-04-04T06:49:39.051Z,74.68
2023-04-04T06:50:39.611Z,74.41
2023-04-04T06:51:38.524Z,74.06
2023-04-04T06:52:39.558Z,73.70
2023-04-04T06:53:37.531Z,73.44
2023-04-04T06:54:42.716Z,73.25
2023-04-04T06:55:37.808Z,73.13
2023-04-04T06:56:56.796Z,72.97
2023-04-04T06:57:37.619Z,72.86
2023-04-04T06:58:37.804Z,72.73
2023-04-04T06:59:37.824Z,72.55
2023-04-04T07:00:39.529Z,72.38
2023-04-04T07:01:37.770Z,72.30
2023-04-04T07:02:46.309Z,72.24
2023-04-04T07:03:37.103Z,72.13
2023-04-04T07:04:37.817Z,71.44
2023-04-04T07:05:37.608Z,71.22
2023-04-04T07:06:40.501Z,71.30
2023-04-04T07:07:37.517Z,71.04
2023-04-04T07:08:37.504Z,70.97
2023-04-04T07:09:44.130Z,70.99
2023-04-04T07:10:39.704Z,71.05
2023-04-04T07:11:37.143Z,70.94
2023-04-04T07:12:37.722Z,70.82
2023-04-04T07:13:37.832Z,70.87
2023-04-04T07:14:37.890Z,70.77
2023-04-04T07:15:38.154Z,70.74
2023-04-04T07:16:37.946Z,70.73
2023-04-04T07:17:39.888Z,70.74
2023-04-04T07:18:52.131Z,70.59
2023-04-04T07:19:37.025Z,70.40
2023-04-04T07:20:37.959Z,70.39
2023-04-04T07:21:37.331Z,70.34
2023-04-04T07:22:37.434Z,70.07
2023-04-04T07:23:37.093Z,69.79
2023-04-04T07:24:37.586Z,69.51
2023-04-04T07:25:37.674Z,69.55
2023-04-04T07:26:56.791Z,69.51
2023-04-04T07:27:37.298Z,69.46
2023-04-04T07:28:37.258Z,69.41
2023-04-04T07:29:36.847Z,69.48
2023-04-04T07:30:37.743Z,69.61
2023-04-04T07:31:37.899Z,69.75
2023-04-04T07:32:39.481Z,69.86
2023-04-04T07:33:37.663Z,69.68
2023-04-04T07:34:37.696Z,69.41
2023-04-04T07:35:37.145Z,69.39
2023-04-04T07:36:37.553Z,69.30
2023-04-04T07:37:37.793Z,69.01
2023-04-04T07:38:37.740Z,68.93
2023-04-04T07:39:37.951Z,69.04
2023-04-04T07:40:38.258Z,69.28
2023-04-04T07:41:37.480Z,69.30
2023-04-04T07:42:37.573Z,69.17
2023-04-04T07:43:37.585Z,69.21
2023-04-04T07:44:37.889Z,69.27
2023-04-04T07:45:37.920Z,69.24
2023-04-04T07:46:37.987Z,69.12
2023-04-04T07:47:37.257Z,69.12
2023-04-04T07:48:37.900Z,69.07
2023-04-04T07:49:37.578Z,68.99
2023-04-04T07:50:38.556Z,68.99
2023-04-04T07:51:37.676Z,68.99
2023-04-04T07:52:37.635Z,68.97
2023-04-04T07:53:37.761Z,68.87
2023-04-04T07:54:37.590Z,68.87
2023-04-04T07:55:37.419Z,68.73
2023-04-04T07:56:37.309Z,68.73
2023-04-04T07:57:37.115Z,68.72
2023-04-04T07:58:37.398Z,68.56
2023-04-04T07:59:37.196Z,68.26
2023-04-04T08:00:38.972Z,68.10
2023-04-04T08:01:37.276Z,68.24
2023-04-04T08:02:37.901Z,68.27
2023-04-04T08:03:38.475Z,68.10
2023-04-04T08:04:37.790Z,67.94
2023-04-04T08:05:37.571Z,67.96
2023-04-04T08:06:37.649Z,67.96
2023-04-04T08:07:37.514Z,67.93
2023-04-04T08:08:37.788Z,67.93
2023-04-04T08:09:37.874Z,67.93
2023-04-04T08:10:38.335Z,67.94
2023-04-04T08:11:38.610Z,67.92
2023-04-04T08:12:38.023Z,68.03
2023-04-04T08:13:37.960Z,68.04
2023-04-04T08:14:37.896Z,67.93
2023-04-04T08:15:38.146Z,67.92
2023-04-04T08:16:37.424Z,67.80
2023-04-04T08:17:37.387Z,67.62
2023-04-04T08:18:37.862Z,67.5
2023-04-04T08:19:37.076Z,67.48
2023-04-04T08:20:37.379Z,67.43
2023-04-04T08:21:37.261Z,67.36
2023-04-04T08:22:37.030Z,67.14
2023-04-04T08:23:37.078Z,66.91
2023-04-04T08:24:37.576Z,66.76
2023-04-04T08:25:37.609Z,66.71
2023-04-04T08:26:37.434Z,66.73
2023-04-04T08:27:37.346Z,66.72
2023-04-04T08:28:37.217Z,66.53
2023-04-04T08:29:37.242Z,66.54
2023-04-04T08:30:37.475Z,66.45
2023-04-04T08:31:38.050Z,66.39
2023-04-04T08:33:47.802Z,66.50
2023-04-04T08:34:38.047Z,66.43
2023-04-04T08:35:37.073Z,66.05
2023-04-04T08:36:37.443Z,65.73
2023-04-04T08:37:37.498Z,65.48
2023-04-04T08:38:37.417Z,65.33
2023-04-04T08:39:37.470Z,64.98
2023-04-04T08:40:37.840Z,64.21
2023-04-04T08:41:37.334Z,64.24
2023-04-04T08:42:37.342Z,64.09
2023-04-04T08:43:37.364Z,64.01
2023-04-04T08:44:37.430Z,63.71
2023-04-04T08:45:42.913Z,63.56
2023-04-04T08:46:38.708Z,63.09
2023-04-04T08:47:42.557Z,63.41
2023-04-04T08:48:37.478Z,63.04
2023-04-04T08:49:37.293Z,63.34
2023-04-04T08:50:37.200Z,63.38
2023-04-04T08:51:37.362Z,63.20
2023-04-04T08:52:37.120Z,62.97
2023-04-04T08:53:45.110Z,63.24
2023-04-04T08:54:37.097Z,63.26
2023-04-04T08:55:37.048Z,63.18
2023-04-04T08:56:37.402Z,63.56
2023-04-04T08:57:45.930Z,63.87
2023-04-04T08:58:38.175Z,63.75
2023-04-04T08:59:37.754Z,63.55
2023-04-04T09:00:39.324Z,63.65
2023-04-04T09:01:37.932Z,63.88
2023-04-04T09:02:38.195Z,63.72
2023-04-04T09:03:37.624Z,63.74
2023-04-04T09:04:37.526Z,63.33
2023-04-04T09:05:37.468Z,63.26
2023-04-04T09:06:37.742Z,63.25
2023-04-04T09:07:39.412Z,63.53
2023-04-04T09:08:37.279Z,63.39
2023-04-04T09:09:37.601Z,63.50
2023-04-04T09:10:38.213Z,63.25
2023-04-04T09:11:38.164Z,63.08
2023-04-04T09:12:37.588Z,62.84
2023-04-04T09:13:39.126Z,62.35
2023-04-04T09:14:37.912Z,62.41
2023-04-04T09:15:38.387Z,62.42
2023-04-04T09:16:38.017Z,62.56
2023-04-04T09:17:42.061Z,62.84
2023-04-04T09:18:36.998Z,62.06
2023-04-04T09:19:40.864Z,61.56
2023-04-04T09:20:38.684Z,61.52
2023-04-04T09:21:57.107Z,61.43
2023-04-04T09:22:37.356Z,61.71
2023-04-04T09:23:42.081Z,61.70
2023-04-04T09:24:37.906Z,61.58
2023-04-04T09:26:22.019Z,60.90
2023-04-04T09:26:49.689Z,59.97
2023-04-04T09:27:37.615Z,59.93
2023-04-04T09:28:37.269Z,60.79
2023-04-04T09:29:37.261Z,61.00
2023-04-04T09:30:37.443Z,61.03
2023-04-04T09:31:37.030Z,60.91
2023-04-04T09:32:37.515Z,60.94
2023-04-04T09:33:51.520Z,61.24
2023-04-04T09:34:37.943Z,61.32
2023-04-04T09:35:51.449Z,61.22
2023-04-04T09:36:37.934Z,61.00
2023-04-04T09:37:37.927Z,60.70
2023-04-04T09:38:37.980Z,60.59
2023-04-04T09:39:37.803Z,61.04
2023-04-04T09:40:37.922Z,61.08
2023-04-04T09:41:38.009Z,60.47
2023-04-04T09:42:37.266Z,59.61
2023-04-04T09:43:37.104Z,59.43
2023-04-04T09:44:37.212Z,59.02
2023-04-04T09:45:47.039Z,59.72
2023-04-04T09:46:37.624Z,60.31
2023-04-04T09:47:45.719Z,60.25
2023-04-04T09:48:37.849Z,59.86
2023-04-04T09:49:37.874Z,60.29
2023-04-04T09:50:38.495Z,60.12
2023-04-04T09:51:56.709Z,60.20
2023-04-04T09:52:38.570Z,60.15
2023-04-04T09:53:37.446Z,60.01
2023-04-04T09:54:48.401Z,60.18
2023-04-04T09:55:38.572Z,59.99
2023-04-04T09:56:38.337Z,60.13
2023-04-04T09:57:37.333Z,59.90
2023-04-04T09:58:37.276Z,59.72
2023-04-04T09:59:37.842Z,60.14
2023-04-04T10:00:38.775Z,60
2023-04-04T10:01:38.156Z,59.70
2023-04-04T10:02:37.198Z,58.95
2023-04-04T10:03:37.139Z,58.63
2023-04-04T10:04:38.177Z,58.51
2023-04-04T10:05:37.645Z,58.68
2023-04-04T10:06:37.217Z,59.54
2023-04-04T10:07:37.061Z,59.42
2023-04-04T10:08:37.416Z,59.15
2023-04-04T10:09:37.253Z,58.82
2023-04-04T10:10:37.758Z,58.88
2023-04-04T10:11:39.977Z,58.45
2023-04-04T10:12:36.982Z,58.40
2023-04-04T10:13:37.174Z,58.76
2023-04-04T10:14:37.730Z,58.43
2023-04-04T10:15:38.709Z,58
2023-04-04T10:16:37.460Z,57.70
2023-04-04T10:17:37.242Z,58.00
2023-04-04T10:18:36.954Z,58.13
2023-04-04T10:19:36.810Z,58.51
2023-04-04T10:20:37.642Z,58.43
2023-04-04T10:21:37.896Z,58.33
2023-04-04T10:22:38.138Z,57.81
2023-04-04T10:23:37.287Z,57.88
2023-04-04T10:24:37.488Z,57.59
2023-04-04T10:25:37.468Z,57.06
2023-04-04T10:26:37.927Z,56.65
2023-04-04T10:27:37.358Z,57.90
2023-04-04T10:28:37.399Z,58.27
2023-04-04T10:29:37.363Z,58.48
2023-04-04T10:30:38.317Z,58.82
2023-04-04T10:31:37.379Z,58.72
2023-04-04T10:32:38.348Z,58.40
2023-04-04T10:33:37.403Z,57.97
2023-04-04T10:34:37.722Z,57.87
2023-04-04T10:35:38.265Z,56.88
2023-04-04T10:36:37.636Z,56.70
2023-04-04T10:37:37.759Z,57.38
2023-04-04T10:38:38.450Z,57.79
2023-04-04T10:39:37.848Z,56.86
2023-04-04T10:40:38.744Z,57.45
2023-04-04T10:41:37.576Z,57.38
2023-04-04T10:42:37.576Z,56.90
2023-04-04T10:43:37.735Z,56.70
2023-04-04T10:44:37.896Z,57.61
2023-04-04T10:45:38.748Z,58.25
2023-04-04T10:46:37.325Z,58.28
2023-04-04T10:47:38.367Z,58.50
2023-04-04T10:48:37.796Z,58.65
2023-04-04T10:49:37.828Z,58.28
2023-04-04T10:50:37.950Z,58.45
2023-04-04T10:51:48.752Z,58.56
2023-04-04T10:52:37.547Z,58.22
2023-04-04T10:53:38.366Z,57.33
2023-04-04T10:54:37.830Z,57.61
2023-04-04T10:55:38.427Z,57.37
2023-04-04T10:56:37.870Z,57.06
2023-04-04T10:57:38.081Z,57.67
2023-04-04T10:58:37.599Z,57.69
2023-04-04T10:59:37.999Z,57.52
2023-04-04T11:00:38.563Z,57.29
2023-04-04T11:01:37.944Z,56.75
2023-04-04T11:02:38.513Z,56.24
2023-04-04T11:03:37.704Z,56.38
2023-04-04T11:04:38.671Z,56.29
2023-04-04T11:05:37.620Z,55.75
2023-04-04T11:06:37.847Z,55.47
2023-04-04T11:07:37.727Z,55.49
2023-04-04T11:08:37.615Z,55.65
2023-04-04T11:09:37.602Z,55.32
2023-04-04T11:10:43.018Z,55.29
2023-04-04T11:11:38.197Z,55.24
2023-04-04T11:12:42.283Z,55.13
2023-04-04T11:13:37.304Z,55.35
2023-04-04T11:14:37.458Z,55.34
2023-04-04T11:15:37.548Z,55.86
2023-04-04T11:16:45.556Z,55.95
2023-04-04T11:17:38.439Z,56.15
2023-04-04T11:18:48.316Z,55.72
2023-04-04T11:19:38.443Z,55.33
2023-04-04T11:20:37.789Z,54.84
2023-04-04T11:21:37.910Z,54.90
2023-04-04T11:22:38.008Z,54.98
2023-04-04T11:23:37.178Z,54.99
2023-04-04T11:24:37.769Z,55.77
2023-04-04T11:25:37.899Z,55.58
2023-04-04T11:26:37.085Z,55.83
2023-04-04T11:27:37.303Z,56.47
2023-04-04T11:28:37.609Z,55.34
2023-04-04T11:29:37.566Z,55.27
2023-04-04T11:30:38.269Z,55.04
2023-04-04T11:31:37.364Z,55.30
2023-04-04T11:33:00.190Z,55.68
2023-04-04T11:33:36.966Z,56.30
2023-04-04T11:34:38.111Z,56.55
2023-04-04T11:35:37.749Z,56.29
2023-04-04T11:36:37.181Z,56.79
2023-04-04T11:37:37.223Z,57.15
2023-04-04T11:38:36.908Z,56.79
2023-04-04T11:39:38.065Z,56.24
2023-04-04T11:40:55.952Z,56.07
2023-04-04T11:41:37.879Z,56.40
2023-04-04T11:42:42.992Z,56.5
2023-04-04T11:43:36.864Z,55.59
2023-04-04T11:44:38.419Z,56.18
2023-04-04T11:45:37.327Z,55.81
2023-04-04T11:46:37.214Z,55.46
2023-04-04T11:47:37.294Z,55.45
2023-04-04T11:48:37.432Z,56.34
2023-04-04T11:49:37.299Z,56.28
2023-04-04T11:50:45.417Z,56.18
2023-04-04T11:51:36.980Z,56.21
2023-04-04T11:52:37.753Z,55.72
2023-04-04T11:53:37.812Z,55.50
2023-04-04T11:54:45.595Z,55.09
2023-04-04T11:55:38.213Z,55.65
2023-04-04T11:56:37.635Z,55.06
2023-04-04T11:57:37.378Z,54.45
2023-04-04T11:58:37.513Z,54.10
2023-04-04T11:59:37.472Z,53.93
2023-04-04T12:00:38.981Z,53.91
2023-04-04T12:01:36.725Z,54.05
2023-04-04T12:02:38.245Z,54.31
2023-04-04T12:03:37.910Z,54.81
2023-04-04T12:04:37.844Z,54.95
2023-04-04T12:05:38.980Z,54.98
2023-04-04T12:06:51.713Z,54.99
2023-04-04T12:07:38.013Z,54.56
2023-04-04T12:08:36.885Z,54.42
2023-04-04T12:09:37.574Z,54.29
2023-04-04T12:10:37.886Z,54.34
2023-04-04T12:11:37.686Z,54.65
2023-04-04T12:12:37.620Z,54.58
2023-04-04T12:13:37.206Z,54.66
2023-04-04T12:14:37.573Z,55.13
2023-04-04T12:15:38.325Z,55.13
2023-04-04T12:16:38.215Z,54.75
2023-04-04T12:17:37.791Z,54.43
2023-04-04T12:18:38.406Z,54.24
2023-04-04T12:19:37.464Z,54.25
2023-04-04T12:20:37.895Z,54.21
2023-04-04T12:21:37.837Z,54.22
2023-04-04T12:22:37.995Z,53.95
2023-04-04T12:23:37.747Z,53.52
2023-04-04T12:24:38.092Z,53.06
2023-04-04T12:25:37.424Z,52.31
2023-04-04T12:26:37.392Z,52.05
2023-04-04T12:27:36.957Z,52.36
2023-04-04T12:28:37.450Z,52.36
2023-04-04T12:29:37.558Z,52.47
2023-04-04T12:31:09.400Z,52.45
2023-04-04T12:31:40.833Z,52.15
2023-04-04T12:32:38.605Z,51.97
2023-04-04T12:33:37.964Z,52.19
2023-04-04T12:34:37.939Z,52.11
2023-04-04T12:35:38.980Z,52.46
2023-04-04T12:36:37.844Z,52.77
2023-04-04T12:37:38.027Z,52.85
2023-04-04T12:38:37.199Z,52.52
2023-04-04T12:39:37.145Z,52.76
2023-04-04T12:40:37.803Z,52.65
2023-04-04T12:41:38.900Z,52.40
2023-04-04T12:43:38.509Z,51.65
2023-04-04T12:44:37.671Z,51.39
2023-04-04T12:45:38.306Z,51.88
2023-04-04T12:46:37.793Z,52.00
2023-04-04T12:47:37.745Z,51.78
2023-04-04T12:48:38.233Z,51.24
2023-04-04T12:49:37.392Z,51.25
2023-04-04T12:50:38.021Z,51.44
2023-04-04T12:51:37.179Z,51.56
2023-04-04T12:52:37.385Z,51.72
2023-04-04T12:53:38.984Z,52.05
2023-04-04T12:54:37.250Z,51.90